createdAt,value
2023-02-09T00:01:44.745Z,13.48
2023-02-09T00:06:46.475Z,10.30
2023-02-09T00:11:48.619Z,12.80
2023-02-09T00:16:52.035Z,12.10
2023-02-09T00:21:54.034Z,18.52
2023-02-09T00:26:55.592Z,14.07
2023-02-09T00:31:57.174Z,15.75
2023-02-09T00:36:58.683Z,12.13
2023-02-09T00:42:00.280Z,13.85
2023-02-09T00:47:03.698Z,16.48
2023-02-09T00:52:05.421Z,15.73
2023-02-09T00:57:06.947Z,9.77
2023-02-09T01:02:08.746Z,12.68
2023-02-09T01:07:10.324Z,14.77
2023-02-09T01:12:11.844Z,14.30
2023-02-09T01:17:13.376Z,12.35
2023-02-09T01:22:16.438Z,15.18
2023-02-09T01:27:20.760Z,9.85
2023-02-09T01:32:22.279Z,15.15
2023-02-09T01:37:23.842Z,11.82
2023-02-09T01:42:25.452Z,12.63
2023-02-09T01:47:27.055Z,11.45
2023-02-09T01:52:29.362Z,11.93
2023-02-09T01:57:37.244Z,13.68
2023-02-09T02:02:39.695Z,10.57
2023-02-09T02:07:46.785Z,18.83
2023-02-09T02:12:48.689Z,15.90
2023-02-09T02:18:28.097Z,13.95
2023-02-09T02:23:45.308Z,12.80
2023-02-09T02:29:14.821Z,14.43
2023-02-09T02:34:37.469Z,15.75
2023-02-09T02:39:49.457Z,15.18
2023-02-09T02:45:08.832Z,17.27
2023-02-09T02:50:23.849Z,13.20
2023-02-09T02:55:30.275Z,14.05
2023-02-09T03:00:36.589Z,15.90
2023-02-09T03:05:38.722Z,15.48
2023-02-09T03:10:42.118Z,16.80
2023-02-09T03:22:28.931Z,14.45
2023-02-09T03:27:41.532Z,14.07
2023-02-09T03:32:45.487Z,15.25
2023-02-09T03:37:47.190Z,17.73
2023-02-09T03:42:49.471Z,15.85
2023-02-09T03:47:51.116Z,12.77
2023-02-09T03:52:52.657Z,16.13
2023-02-09T03:57:54.231Z,16.88
2023-02-09T04:02:55.744Z,15.82
2023-02-09T04:07:57.234Z,19.00
2023-02-09T04:12:58.731Z,24.80
2023-02-09T04:18:00.359Z,14.13
2023-02-09T04:23:01.899Z,20.83
2023-02-09T04:28:04.370Z,15.52
2023-02-09T04:33:06.096Z,21.52
2023-02-09T04:38:07.588Z,20.27
2023-02-09T04:43:09.164Z,22.65
2023-02-09T04:48:13.625Z,22.17
2023-02-09T04:53:15.528Z,23.02
2023-02-09T04:58:19.850Z,16.45
2023-02-09T05:03:23.669Z,17.80
2023-02-09T05:08:26.337Z,28.65
2023-02-09T05:13:28.476Z,18.60
2023-02-09T05:18:32.672Z,17.70
2023-02-09T05:23:34.439Z,20.75
2023-02-09T05:28:36.377Z,22.52
2023-02-09T05:33:37.874Z,20.42
2023-02-09T05:38:39.757Z,23.67
2023-02-09T05:43:41.281Z,22.05
2023-02-09T05:48:42.902Z,22.60
2023-02-09T05:53:44.448Z,22.38
2023-02-09T05:58:45.923Z,15.50
2023-02-09T06:03:47.505Z,20.17
2023-02-09T06:08:49.092Z,21.10
2023-02-09T06:13:50.604Z,18.75
2023-02-09T06:18:52.223Z,24.02
2023-02-09T06:23:53.836Z,24.65
2023-02-09T06:28:55.657Z,16.38
2023-02-09T06:33:57.278Z,21.10
2023-02-09T06:38:58.898Z,21.35
2023-02-09T06:44:00.534Z,18.17
2023-02-09T06:49:02.474Z,19.73
2023-02-09T06:54:04.431Z,21.52
2023-02-09T06:59:06.016Z,24.02
2023-02-09T07:04:07.546Z,22.63
2023-02-09T07:09:09.253Z,20.98
2023-02-09T07:14:10.908Z,27.42
2023-02-09T07:19:12.991Z,24.98
2023-02-09T07:24:14.577Z,27.42
2023-02-09T07:29:16.734Z,32.53
2023-02-09T07:34:18.253Z,22.13
2023-02-09T07:39:19.923Z,24.13
2023-02-09T07:44:21.556Z,24.65
2023-02-09T07:49:23.147Z,22.92
2023-02-09T07:54:24.753Z,32.15
2023-02-09T07:59:26.330Z,22.05
2023-02-09T08:04:27.961Z,21.85
2023-02-09T08:09:29.607Z,20.75
2023-02-09T08:14:37.693Z,24.13
2023-02-09T08:19:39.619Z,22.45
2023-02-09T08:24:41.406Z,21.30
2023-02-09T08:29:43.191Z,19.58
2023-02-09T08:34:44.755Z,18.38
2023-02-09T08:39:46.276Z,20.98
2023-02-09T08:44:48.051Z,16.80
2023-02-09T08:49:50.205Z,21.17
2023-02-09T08:54:51.783Z,25.65
2023-02-09T08:59:53.404Z,20.13
2023-02-09T09:04:54.912Z,19.08
2023-02-09T09:09:56.483Z,21.77
2023-02-09T09:14:57.995Z,17.77
2023-02-09T09:19:59.728Z,17.45
2023-02-09T09:25:01.366Z,19.10
2023-02-09T09:30:04.589Z,18.27
2023-02-09T09:35:06.444Z,19.65
2023-02-09T09:40:17.301Z,18.25
2023-02-09T09:45:24.270Z,19.55
2023-02-09T09:50:31.638Z,24.80
2023-02-09T09:55:34.457Z,20.20
2023-02-09T10:00:42.291Z,19.38
2023-02-09T10:05:45.534Z,23.42
2023-02-09T10:10:51.435Z,18.77
2023-02-09T10:15:55.483Z,20.73
2023-02-09T10:21:04.686Z,22.02
2023-02-09T10:26:09.216Z,18.90
2023-02-09T10:31:32.183Z,20.92
2023-02-09T10:36:37.107Z,17.88
2023-02-09T10:41:41.588Z,18.10
2023-02-09T10:46:43.412Z,17.48
2023-02-09T10:51:44.960Z,16.60
2023-02-09T10:56:48.877Z,15.73
2023-02-09T11:02:03.157Z,16.63
2023-02-09T11:07:14.795Z,18.63
2023-02-09T11:12:16.444Z,17.00
2023-02-09T11:17:46.174Z,17.73
2023-02-09T11:23:15.478Z,15.20
2023-02-09T11:28:54.284Z,15.18
2023-02-09T11:34:15.666Z,16.77
2023-02-09T11:39:26.718Z,13.73
2023-02-09T11:44:46.371Z,15.35
2023-02-09T11:49:50.563Z,17.55
2023-02-09T11:54:57.609Z,19.33
2023-02-09T12:00:05.753Z,16.30
2023-02-09T12:05:13.392Z,17.60
2023-02-09T12:10:42.871Z,15.88
2023-02-09T12:15:49.563Z,18.05
2023-02-09T12:20:54.052Z,18.20
2023-02-09T12:26:00.920Z,14.60
2023-02-09T12:31:04.897Z,13.40
2023-02-09T12:36:09.734Z,12.50
2023-02-09T12:41:11.419Z,12.85
2023-02-09T12:46:45.224Z,15.13
2023-02-09T12:51:49.957Z,10.60
2023-02-09T12:56:51.600Z,13.65
2023-02-09T13:02:08.286Z,13.32
2023-02-09T13:07:29.913Z,10.85
2023-02-09T13:12:42.325Z,13.00
2023-02-09T13:18:06.749Z,12.20
2023-02-09T13:23:14.055Z,12.10
2023-02-09T13:28:18.445Z,8.85
2023-02-09T13:33:49.057Z,10.35
2023-02-09T13:38:50.825Z,14.27
2023-02-09T13:43:52.803Z,16.77
2023-02-09T13:48:54.929Z,12.02
2023-02-09T13:53:59.513Z,13.25
2023-02-09T13:59:01.385Z,12.40
2023-02-09T14:04:35.430Z,12.82
2023-02-09T14:10:01.979Z,10.18
2023-02-09T14:15:03.923Z,12.10
2023-02-09T14:20:19.842Z,12.18
2023-02-09T14:25:31.531Z,13.18
2023-02-09T14:30:36.244Z,10.00
2023-02-09T14:35:45.060Z,12.07
2023-02-09T14:40:46.878Z,15.82
2023-02-09T14:45:58.676Z,10.85
2023-02-09T14:51:10.321Z,12.73
2023-02-09T14:56:30.640Z,12.32
2023-02-09T15:01:32.359Z,13.10
2023-02-09T15:06:35.467Z,12.45
2023-02-09T15:11:42.195Z,9.70
2023-02-09T15:16:44.201Z,11.35
2023-02-09T15:21:52.591Z,10.40
2023-02-09T15:27:01.307Z,14.30
2023-02-09T15:32:03.068Z,12.77
2023-02-09T15:37:04.737Z,11.95
2023-02-09T15:42:14.728Z,11.88
2023-02-09T15:47:16.234Z,13.50
2023-02-09T15:52:18.617Z,16.25
2023-02-09T15:57:20.308Z,15.88
2023-02-09T16:02:21.894Z,12.70
2023-02-09T16:07:26.119Z,18.85
2023-02-09T16:12:27.730Z,17.95
2023-02-09T16:17:29.360Z,16.27
2023-02-09T16:22:30.915Z,13.88
2023-02-09T16:27:32.574Z,16.77
2023-02-09T16:32:34.175Z,19.02
2023-02-09T16:37:36.061Z,17.42
2023-02-09T16:42:37.634Z,15.77
2023-02-09T16:47:40.932Z,12.82
2023-02-09T16:52:43.446Z,14.07
2023-02-09T16:57:44.983Z,21.40
2023-02-09T17:02:57.755Z,50.63
2023-02-09T17:08:13.664Z,26.50
2023-02-09T17:13:15.767Z,20.88
2023-02-09T17:18:24.115Z,20.90
2023-02-09T17:23:28.385Z,19.70
2023-02-09T17:28:30.117Z,18.50
2023-02-09T17:33:34.251Z,19.38
2023-02-09T17:38:37.242Z,17.58
2023-02-09T17:43:38.798Z,22.20
2023-02-09T17:48:40.425Z,22.27
2023-02-09T17:53:41.956Z,23.65
2023-02-09T17:58:43.582Z,23.95
2023-02-09T18:03:45.125Z,19.83
2023-02-09T18:08:46.648Z,15.95
2023-02-09T18:13:48.179Z,23.30
2023-02-09T18:18:49.792Z,23.73
2023-02-09T18:23:51.417Z,22.35
2023-02-09T18:28:53.061Z,22.27
2023-02-09T18:33:54.896Z,30.08
2023-02-09T18:38:56.463Z,26.15
2023-02-09T18:43:58.166Z,16.83
2023-02-09T18:49:01.858Z,18.00
2023-02-09T18:54:04.799Z,19.25
2023-02-09T18:59:06.334Z,19.73
2023-02-09T19:04:07.917Z,18.20
2023-02-09T19:09:09.457Z,26.42
2023-02-09T19:14:11.035Z,30.13
2023-02-09T19:19:12.796Z,28.50
2023-02-09T19:24:14.431Z,19.20
2023-02-09T19:29:16.691Z,25.80
2023-02-09T19:34:18.746Z,24.10
2023-02-09T19:39:20.261Z,25.27
2023-02-09T19:44:21.774Z,25.25
2023-02-09T19:49:23.576Z,26.77
2023-02-09T19:54:25.089Z,23.42
2023-02-09T19:59:26.574Z,20.48
2023-02-09T20:04:28.160Z,17.88
2023-02-09T20:09:29.853Z,25.58
2023-02-09T20:14:33.481Z,20.80
2023-02-09T20:19:36.078Z,24.50
2023-02-09T20:24:37.714Z,26.30
2023-02-09T20:29:39.246Z,32.15
2023-02-09T20:34:40.826Z,28.75
2023-02-09T20:39:42.384Z,24.13
2023-02-09T20:44:44.278Z,29.53
2023-02-09T20:49:45.819Z,34.67
2023-02-09T20:54:47.405Z,23.35
2023-02-09T20:59:48.909Z,29.70
2023-02-09T21:04:50.829Z,25.58
2023-02-09T21:09:52.929Z,28.13
2023-02-09T21:14:54.550Z,29.90
2023-02-09T21:19:56.552Z,27.60
2023-02-09T21:24:58.056Z,28.42
2023-02-09T21:30:00.012Z,24.63
2023-02-09T21:35:03.598Z,25.15
2023-02-09T21:40:06.650Z,29.40
2023-02-09T21:45:09.302Z,33.50
2023-02-09T21:50:12.961Z,32.10
2023-02-09T21:55:14.738Z,28.55
2023-02-09T22:00:16.651Z,30.80
2023-02-09T22:05:18.505Z,37.42
2023-02-09T22:10:20.142Z,30.25
2023-02-09T22:15:21.670Z,34.22
2023-02-09T22:20:23.319Z,40.65
2023-02-09T22:25:24.954Z,30.40
2023-02-09T22:30:26.526Z,38.47
2023-02-09T22:35:28.741Z,36.75
2023-02-09T22:40:30.329Z,34.30
2023-02-09T22:45:32.363Z,35.85
2023-02-09T22:50:34.971Z,36.00
2023-02-09T22:55:36.521Z,32.53
2023-02-09T23:00:38.041Z,38.03
2023-02-09T23:05:39.562Z,33.80
2023-02-09T23:10:41.094Z,40.28
2023-02-09T23:15:42.659Z,39.92
2023-02-09T23:20:44.175Z,37.80
2023-02-09T23:25:45.862Z,39.58
2023-02-09T23:30:48.045Z,37.90
2023-02-09T23:35:49.950Z,37.83
2023-02-09T23:40:51.602Z,39.10
2023-02-09T23:45:53.555Z,35.58
2023-02-09T23:51:04.048Z,38.67
2023-02-09T23:56:05.845Z,30.55
